sensor_id;sensor_type;location;lat;lon;timestamp;temperature;humidity
12374;DHT22;6251;51.762;8.660;2023-07-31T01:01:34;15.90;99.90
12374;DHT22;6251;51.762;8.660;2023-07-31T01:11:42;15.90;99.90
12374;DHT22;6251;51.762;8.660;2023-07-31T02:53:16;15.10;99.90
12374;DHT22;6251;51.762;8.660;2023-07-31T04:04:19;15.50;99.90
12374;DHT22;6251;51.762;8.660;2023-07-31T04:14:19;15.50;99.90
12374;DHT22;6251;51.762;8.660;2023-07-31T04:24:20;15.50;99.90
12374;DHT22;6251;51.762;8.660;2023-07-31T04:34:24;15.40;99.90
12374;DHT22;6251;51.762;8.660;2023-07-31T04:44:25;15.30;99.90
12374;DHT22;6251;51.762;8.660;2023-07-31T04:54:25;15.30;99.90
12374;DHT22;6251;51.762;8.660;2023-07-31T05:04:26;15.40;99.90
12374;DHT22;6251;51.762;8.660;2023-07-31T05:14:26;15.40;99.90
12374;DHT22;6251;51.762;8.660;2023-07-31T05:24:27;15.40;99.90
12374;DHT22;6251;51.762;8.660;2023-07-31T05:34:28;15.50;99.90
12374;DHT22;6251;51.762;8.660;2023-07-31T05:44:28;15.50;99.90
12374;DHT22;6251;51.762;8.660;2023-07-31T05:54:29;15.50;99.90
12374;DHT22;6251;51.762;8.660;2023-07-31T06:04:30;15.50;99.90
12374;DHT22;6251;51.762;8.660;2023-07-31T06:14:30;15.60;99.90
12374;DHT22;6251;51.762;8.660;2023-07-31T06:24:31;15.70;99.90
12374;DHT22;6251;51.762;8.660;2023-07-31T06:34:31;15.90;99.90
12374;DHT22;6251;51.762;8.660;2023-07-31T06:44:32;16.00;99.90
12374;DHT22;6251;51.762;8.660;2023-07-31T06:54:32;16.10;99.90
12374;DHT22;6251;51.762;8.660;2023-07-31T07:04:33;16.20;99.90
12374;DHT22;6251;51.762;8.660;2023-07-31T07:14:34;16.10;99.90
12374;DHT22;6251;51.762;8.660;2023-07-31T07:24:34;16.20;99.90
12374;DHT22;6251;51.762;8.660;2023-07-31T07:34:35;16.20;99.90
12374;DHT22;6251;51.762;8.660;2023-07-31T07:44:35;16.30;99.90
12374;DHT22;6251;51.762;8.660;2023-07-31T07:54:36;16.20;99.90
12374;DHT22;6251;51.762;8.660;2023-07-31T08:04:36;16.20;99.90
12374;DHT22;6251;51.762;8.660;2023-07-31T08:14:37;16.30;99.90
12374;DHT22;6251;51.762;8.660;2023-07-31T08:24:38;16.40;99.90
12374;DHT22;6251;51.762;8.660;2023-07-31T08:34:38;16.70;99.90
12374;DHT22;6251;51.762;8.660;2023-07-31T08:44:39;17.00;99.90
12374;DHT22;6251;51.762;8.660;2023-07-31T08:54:39;17.20;99.90
12374;DHT22;6251;51.762;8.660;2023-07-31T09:15:24;17.00;99.90
12374;DHT22;6251;51.762;8.660;2023-07-31T09:25:26;17.10;99.90
12374;DHT22;6251;51.762;8.660;2023-07-31T09:35:31;17.40;99.90
12374;DHT22;6251;51.762;8.660;2023-07-31T09:45:35;17.60;99.90
12374;DHT22;6251;51.762;8.660;2023-07-31T09:55:38;17.80;99.90
12374;DHT22;6251;51.762;8.660;2023-07-31T10:05:50;18.00;99.90
12374;DHT22;6251;51.762;8.660;2023-07-31T10:15:51;18.50;99.90
12374;DHT22;6251;51.762;8.660;2023-07-31T10:25:57;18.80;99.90
12374;DHT22;6251;51.762;8.660;2023-07-31T10:36:17;18.60;99.90
12374;DHT22;6251;51.762;8.660;2023-07-31T10:46:18;18.40;99.90
12374;DHT22;6251;51.762;8.660;2023-07-31T10:56:18;18.40;99.90
12374;DHT22;6251;51.762;8.660;2023-07-31T11:06:22;18.40;99.90
12374;DHT22;6251;51.762;8.660;2023-07-31T11:16:25;18.50;99.90
12374;DHT22;6251;51.762;8.660;2023-07-31T11:26:25;19.10;99.90
12374;DHT22;6251;51.762;8.660;2023-07-31T11:36:26;19.30;99.90
12374;DHT22;6251;51.762;8.660;2023-07-31T11:46:26;19.20;99.90
12374;DHT22;6251;51.762;8.660;2023-07-31T11:56:27;19.20;99.90
12374;DHT22;6251;51.762;8.660;2023-07-31T12:06:35;19.00;99.90
12374;DHT22;6251;51.762;8.660;2023-07-31T12:16:36;18.90;99.90
12374;DHT22;6251;51.762;8.660;2023-07-31T12:26:37;18.80;99.90
12374;DHT22;6251;51.762;8.660;2023-07-31T12:36:37;19.40;99.90
12374;DHT22;6251;51.762;8.660;2023-07-31T12:46:40;19.50;99.90
12374;DHT22;6251;51.762;8.660;2023-07-31T12:56:40;19.20;99.90
12374;DHT22;6251;51.762;8.660;2023-07-31T13:06:41;18.90;99.90
12374;DHT22;6251;51.762;8.660;2023-07-31T13:16:42;18.60;99.90
12374;DHT22;6251;51.762;8.660;2023-07-31T13:26:42;18.60;99.90
12374;DHT22;6251;51.762;8.660;2023-07-31T13:36:43;18.90;99.90
12374;DHT22;6251;51.762;8.660;2023-07-31T13:46:44;19.60;99.90
12374;DHT22;6251;51.762;8.660;2023-07-31T13:56:44;20.20;99.90
12374;DHT22;6251;51.762;8.660;2023-07-31T14:06:45;20.40;99.90
12374;DHT22;6251;51.762;8.660;2023-07-31T14:16:48;20.20;99.90
12374;DHT22;6251;51.762;8.660;2023-07-31T14:26:48;19.90;99.90
12374;DHT22;6251;51.762;8.660;2023-07-31T14:36:49;19.80;99.90
12374;DHT22;6251;51.762;8.660;2023-07-31T14:46:49;19.30;99.90
12374;DHT22;6251;51.762;8.660;2023-07-31T14:56:50;19.30;99.90
12374;DHT22;6251;51.762;8.660;2023-07-31T15:06:52;19.60;99.90
12374;DHT22;6251;51.762;8.660;2023-07-31T15:16:52;20.00;99.90
12374;DHT22;6251;51.762;8.660;2023-07-31T15:26:53;20.20;99.90
12374;DHT22;6251;51.762;8.660;2023-07-31T15:36:54;20.20;99.90
12374;DHT22;6251;51.762;8.660;2023-07-31T15:46:54;20.30;99.90
12374;DHT22;6251;51.762;8.660;2023-07-31T15:56:55;20.70;99.90
12374;DHT22;6251;51.762;8.660;2023-07-31T16:06:55;20.50;99.90
12374;DHT22;6251;51.762;8.660;2023-07-31T16:16:56;20.20;99.90
12374;DHT22;6251;51.762;8.660;2023-07-31T16:26:57;19.80;99.90
12374;DHT22;6251;51.762;8.660;2023-07-31T16:36:57;19.60;99.90
12374;DHT22;6251;51.762;8.660;2023-07-31T16:46:58;19.60;99.90
12374;DHT22;6251;51.762;8.660;2023-07-31T16:56:59;19.50;99.90
12374;DHT22;6251;51.762;8.660;2023-07-31T17:06:59;19.50;99.90
12374;DHT22;6251;51.762;8.660;2023-07-31T17:17:00;19.30;99.90
12374;DHT22;6251;51.762;8.660;2023-07-31T17:27:00;19.20;99.90
12374;DHT22;6251;51.762;8.660;2023-07-31T17:37:01;19.10;99.90
12374;DHT22;6251;51.762;8.660;2023-07-31T17:47:02;19.10;99.90
12374;DHT22;6251;51.762;8.660;2023-07-31T17:57:03;19.00;99.90
12374;DHT22;6251;51.762;8.660;2023-07-31T18:07:04;18.90;99.90
12374;DHT22;6251;51.762;8.660;2023-07-31T18:17:04;18.80;99.90
12374;DHT22;6251;51.762;8.660;2023-07-31T18:27:24;18.60;99.90
12374;DHT22;6251;51.762;8.660;2023-07-31T18:37:24;18.50;99.90
12374;DHT22;6251;51.762;8.660;2023-07-31T18:47:25;18.40;99.90
12374;DHT22;6251;51.762;8.660;2023-07-31T18:57:26;18.30;99.90
12374;DHT22;6251;51.762;8.660;2023-07-31T19:07:27;18.20;99.90
12374;DHT22;6251;51.762;8.660;2023-07-31T19:17:27;18.10;99.90
12374;DHT22;6251;51.762;8.660;2023-07-31T19:27:28;18.00;99.90
12374;DHT22;6251;51.762;8.660;2023-07-31T19:37:29;17.90;99.90
12374;DHT22;6251;51.762;8.660;2023-07-31T19:47:31;17.80;99.90
12374;DHT22;6251;51.762;8.660;2023-07-31T19:57:32;17.70;99.90
12374;DHT22;6251;51.762;8.660;2023-07-31T20:07:32;17.60;99.90
12374;DHT22;6251;51.762;8.660;2023-07-31T20:17:33;17.50;99.90
12374;DHT22;6251;51.762;8.660;2023-07-31T20:27:34;17.40;99.90
12374;DHT22;6251;51.762;8.660;2023-07-31T20:37:34;17.30;99.90
12374;DHT22;6251;51.762;8.660;2023-07-31T20:47:35;17.30;99.90
12374;DHT22;6251;51.762;8.660;2023-07-31T20:57:35;17.20;99.90
12374;DHT22;6251;51.762;8.660;2023-07-31T23:02:14;16.80;99.90
12374;DHT22;6251;51.762;8.660;2023-07-31T23:12:15;16.80;99.90
